Terminal Aerodrome Forecast
Issued by NWS Corpus Christi, TX

Home | Current Version | Previous Version | Text Only | Print | Product List | Glossary On
Versions: 1 2 3 4 5 6 7 8 9 10 11 12 13 14 15 16 17 18 19
000
FTUS44 KCRP 280534
TAFVCT
TAF
KVCT 280534Z 2806/2906 16008KT P6SM OVC012
     FM280800 17008KT 5SM BR SCT008 OVC012
      TEMPO 2809/2813 OVC008
     FM281500 18012G18KT P6SM BKN018 OVC025
     FM281800 16015G22KT P6SM SCT035 BKN250
     FM290100 14010KT P6SM OVC015=

USA.gov is the U.S. government's official web portal to all federal, state and local government web resources and services.